Time;durP1;ratioP1;P1;durP2;ratioP2;P2;SDS_P1;SDS_P2;PMS_P1;PMS_P2;Temp;Humidity;BMP_temperature;BMP_pressure;BME280_temperature;BME280_humidity;BME280_pressure;Samples;Min_cycle;Max_cycle;Signal;HPM_P1;HPM_P2
2022/03/01 00:00:59;;;;;;;16.90;6.57;;;6.60;99.90;;;;;;5000804;28;20030;-86
2022/03/01 00:03:29;;;;;;;13.85;6.68;;;6.60;99.90;;;;;;5017042;28;20026;-85
2022/03/01 00:05:56;;;;;;;19.95;6.25;;;6.60;99.90;;;;;;5000736;28;20548;-86
2022/03/01 00:08:23;;;;;;;17.67;6.28;;;6.60;99.90;;;;;;5016914;28;20045;-85
2022/03/01 00:10:49;;;;;;;14.23;5.10;;;6.50;99.90;;;;;;5000708;28;20018;-85
2022/03/01 00:13:19;;;;;;;19.42;8.13;;;6.40;99.90;;;;;;5017051;28;20029;-85
2022/03/01 00:15:46;;;;;;;15.32;5.78;;;6.40;99.90;;;;;;5000714;28;20033;-85
2022/03/01 00:18:13;;;;;;;14.48;5.80;;;6.40;99.90;;;;;;5000726;28;20025;-85
2022/03/01 00:20:40;;;;;;;13.43;5.15;;;6.30;99.90;;;;;;5000661;28;20037;-86
2022/03/01 00:23:06;;;;;;;17.35;5.95;;;6.20;99.90;;;;;;5000588;28;20029;-86
2022/03/01 00:25:33;;;;;;;12.05;5.57;;;6.30;99.90;;;;;;5000670;28;20029;-86
2022/03/01 00:28:00;;;;;;;11.85;5.45;;;6.30;99.90;;;;;;5000618;28;20120;-84
2022/03/01 00:30:27;;;;;;;17.52;5.40;;;6.30;99.90;;;;;;5016830;28;20072;-85
2022/03/01 00:32:53;;;;;;;15.23;5.32;;;6.00;99.90;;;;;;5016687;28;20079;-84
2022/03/01 00:35:20;;;;;;;14.75;5.40;;;5.90;99.90;;;;;;5000455;28;20033;-84
2022/03/01 00:37:49;;;;;;;10.73;4.93;;;6.00;99.90;;;;;;5000244;28;20028;-85
2022/03/01 00:40:16;;;;;;;10.18;4.22;;;6.10;99.90;;;;;;5016738;28;20105;-84
2022/03/01 00:42:43;;;;;;;19.27;5.85;;;6.10;99.90;;;;;;5000347;28;20034;-84
2022/03/01 00:45:11;;;;;;;14.38;5.47;;;6.10;99.90;;;;;;5000190;28;20030;-84
2022/03/01 00:47:38;;;;;;;10.57;4.88;;;6.20;99.90;;;;;;5000120;28;20060;-84
2022/03/01 00:50:08;;;;;;;11.73;4.72;;;6.10;99.90;;;;;;5016436;28;20548;-83
2022/03/01 00:52:35;;;;;;;11.43;4.50;;;6.00;99.90;;;;;;5000324;28;20033;-87
2022/03/01 00:55:03;;;;;;;15.18;5.88;;;6.00;99.90;;;;;;5016805;28;20513;-86
2022/03/01 00:57:30;;;;;;;12.35;4.20;;;6.00;99.90;;;;;;5000127;28;20056;-85
2022/03/01 00:59:57;;;;;;;13.45;4.70;;;6.00;99.90;;;;;;5017708;28;20397;-84
2022/03/01 01:02:23;;;;;;;13.43;5.10;;;5.90;99.90;;;;;;5003999;28;20048;-84
2022/03/01 01:04:50;;;;;;;10.93;4.93;;;5.80;99.90;;;;;;5003907;28;20398;-83
2022/03/01 01:07:17;;;;;;;13.98;5.45;;;5.60;99.90;;;;;;5020273;28;20056;-84
2022/03/01 01:09:43;;;;;;;11.13;5.38;;;5.60;99.90;;;;;;5003902;28;20056;-84
2022/03/01 01:12:10;;;;;;;17.13;4.90;;;5.60;99.90;;;;;;5020258;28;20490;-84
2022/03/01 01:14:37;;;;;;;16.40;5.30;;;5.50;99.90;;;;;;5003945;28;20478;-83
2022/03/01 01:17:04;;;;;;;15.05;5.30;;;5.60;99.90;;;;;;5004067;28;20067;-84
2022/03/01 01:19:31;;;;;;;18.65;5.70;;;5.40;99.90;;;;;;5020133;28;20033;-84
2022/03/01 01:24:44;;;;;;;10.35;4.15;;;5.50;99.90;;;;;;5019995;28;20061;-84
2022/03/01 01:27:11;;;;;;;20.27;5.53;;;5.60;99.90;;;;;;5003675;28;20391;-84
2022/03/01 01:29:38;;;;;;;15.73;4.75;;;5.50;99.90;;;;;;5003637;28;20035;-84
2022/03/01 01:32:05;;;;;;;10.32;4.18;;;5.60;99.90;;;;;;5003445;28;20041;-84
2022/03/01 01:34:33;;;;;;;10.90;4.20;;;5.50;99.90;;;;;;5019791;28;20025;-84
2022/03/01 01:36:59;;;;;;;11.85;4.47;;;5.40;99.90;;;;;;5003413;28;20079;-83
2022/03/01 01:39:29;;;;;;;12.48;4.38;;;5.50;99.90;;;;;;5003676;28;20071;-83
2022/03/01 01:41:56;;;;;;;10.38;3.78;;;5.50;99.90;;;;;;5003431;28;20029;-84
2022/03/01 01:44:23;;;;;;;10.38;4.40;;;5.50;99.90;;;;;;5003220;28;20029;-83
2022/03/01 01:46:50;;;;;;;8.40;4.07;;;5.30;99.90;;;;;;5019520;28;20029;-84
2022/03/01 01:49:17;;;;;;;9.32;3.88;;;5.30;99.90;;;;;;5003283;28;20391;-84
2022/03/01 01:51:43;;;;;;;12.18;4.70;;;5.30;99.90;;;;;;5003208;28;20032;-84
2022/03/01 01:54:14;;;;;;;9.88;4.03;;;5.40;99.90;;;;;;5003224;28;20092;-84
2022/03/01 01:56:41;;;;;;;8.80;4.05;;;5.40;99.90;;;;;;5003067;28;20049;-84
2022/03/01 01:59:08;;;;;;;12.38;3.45;;;5.40;99.90;;;;;;5003261;28;20048;-83
2022/03/01 02:01:35;;;;;;;6.97;2.88;;;5.30;99.90;;;;;;5003144;28;20030;-84
2022/03/01 02:04:05;;;;;;;6.90;3.25;;;5.30;99.90;;;;;;5002814;28;20430;-84
2022/03/01 02:06:31;;;;;;;11.20;3.85;;;5.30;99.90;;;;;;5002929;28;20055;-84
2022/03/01 02:08:58;;;;;;;10.18;2.95;;;5.30;99.90;;;;;;5002625;28;20105;-84
2022/03/01 02:11:26;;;;;;;10.00;3.75;;;5.30;99.90;;;;;;5001921;28;20032;-85
2022/03/01 02:13:56;;;;;;;10.70;3.67;;;5.40;99.90;;;;;;5002785;28;20040;-84
2022/03/01 02:16:23;;;;;;;12.70;3.83;;;5.40;99.90;;;;;;5018865;28;20041;-84
2022/03/01 02:18:50;;;;;;;9.75;3.83;;;5.30;99.90;;;;;;5002720;28;20105;-84
2022/03/01 02:21:17;;;;;;;11.02;3.58;;;5.30;99.90;;;;;;5018925;28;20033;-83
2022/03/01 02:23:44;;;;;;;8.63;3.83;;;5.30;99.90;;;;;;5002651;28;20029;-83
2022/03/01 02:26:11;;;;;;;9.68;3.47;;;5.30;99.90;;;;;;5018791;28;20034;-83
2022/03/01 02:28:38;;;;;;;6.50;3.25;;;5.30;99.90;;;;;;5002649;28;20037;-83
2022/03/01 02:31:07;;;;;;;5.35;2.35;;;5.30;99.90;;;;;;5002586;28;20022;-84
2022/03/01 02:33:34;;;;;;;7.60;4.07;;;5.20;99.90;;;;;;5002245;28;20036;-83
2022/03/01 02:36:01;;;;;;;9.73;3.40;;;5.20;99.90;;;;;;5002752;28;20028;-84
2022/03/01 02:38:28;;;;;;;9.60;3.72;;;5.20;99.90;;;;;;5002612;28;20037;-84
2022/03/01 02:40:55;;;;;;;4.25;2.67;;;5.20;99.90;;;;;;5002318;28;20437;-83
2022/03/01 02:43:24;;;;;;;7.38;3.53;;;5.20;99.90;;;;;;5002288;28;20049;-83
2022/03/01 02:45:52;;;;;;;12.82;3.15;;;5.20;99.90;;;;;;5002151;28;20158;-84
2022/03/01 02:48:25;;;;;;;9.40;2.85;;;5.10;99.90;;;;;;5002153;28;20037;-83
2022/03/01 02:50:52;;;;;;;8.90;3.58;;;5.00;99.90;;;;;;5018290;28;20026;-84
2022/03/01 02:53:19;;;;;;;6.78;2.97;;;4.90;99.90;;;;;;5002006;28;20076;-84
2022/03/01 02:55:46;;;;;;;8.25;2.85;;;4.90;99.90;;;;;;5001870;28;20022;-83
2022/03/01 02:58:13;;;;;;;4.93;2.17;;;5.00;99.90;;;;;;5002060;28;20037;-83
2022/03/01 03:00:39;;;;;;;7.60;3.00;;;4.90;99.90;;;;;;5002224;28;20024;-84
2022/03/01 03:03:06;;;;;;;6.25;2.88;;;4.90;99.90;;;;;;5002074;28;20036;-83
2022/03/01 03:05:33;;;;;;;7.20;3.08;;;4.90;99.90;;;;;;5001832;28;20025;-83
2022/03/01 03:08:00;;;;;;;11.25;2.90;;;4.90;99.90;;;;;;5017477;28;20045;-84
2022/03/01 03:10:27;;;;;;;7.72;3.13;;;4.90;99.90;;;;;;5001606;28;20040;-84
2022/03/01 03:12:54;;;;;;;8.05;3.08;;;4.90;99.90;;;;;;5001708;28;20057;-83
2022/03/01 03:15:21;;;;;;;5.63;3.03;;;4.90;99.90;;;;;;5001609;28;20030;-84
2022/03/01 03:17:51;;;;;;;7.13;2.80;;;4.90;99.90;;;;;;5001718;28;20033;-84
2022/03/01 03:20:17;;;;;;;8.35;2.75;;;4.90;99.90;;;;;;5001785;28;20021;-83
2022/03/01 03:22:44;;;;;;;11.27;2.90;;;4.90;99.90;;;;;;5001467;28;20021;-84
2022/03/01 03:25:11;;;;;;;7.60;3.22;;;4.90;99.90;;;;;;5001251;28;20036;-83
2022/03/01 03:27:39;;;;;;;5.47;2.47;;;4.90;99.90;;;;;;5001339;28;20037;-84
2022/03/01 03:30:08;;;;;;;7.60;2.97;;;4.90;99.90;;;;;;5001345;28;20049;-83
2022/03/01 03:32:36;;;;;;;9.65;2.80;;;4.80;99.90;;;;;;5017836;28;20017;-83
2022/03/01 03:35:05;;;;;;;5.00;2.92;;;4.80;99.90;;;;;;5001009;28;20032;-84
2022/03/01 03:37:32;;;;;;;5.78;2.45;;;4.80;99.90;;;;;;5001377;28;20029;-84
2022/03/01 03:39:59;;;;;;;5.80;2.83;;;4.70;99.90;;;;;;5001237;28;20021;-83
2022/03/01 03:42:26;;;;;;;5.88;2.03;;;4.80;99.90;;;;;;5017534;28;20108;-84
2022/03/01 03:44:52;;;;;;;7.70;2.80;;;4.80;99.90;;;;;;5017661;28;20056;-84
2022/03/01 03:47:19;;;;;;;7.07;2.70;;;4.90;99.90;;;;;;5000845;28;20025;-83
2022/03/01 03:49:47;;;;;;;5.40;2.40;;;4.80;99.90;;;;;;5000975;28;20033;-85
2022/03/01 03:52:14;;;;;;;10.40;3.30;;;4.80;99.90;;;;;;5001042;28;20079;-83
2022/03/01 03:54:43;;;;;;;4.05;1.92;;;4.80;99.90;;;;;;5000782;28;20116;-84
2022/03/01 03:57:13;;;;;;;4.53;2.85;;;4.70;99.90;;;;;;5000906;28;20069;-84
2022/03/01 03:59:40;;;;;;;11.27;3.03;;;4.70;99.90;;;;;;5001045;28;20475;-84
2022/03/01 04:02:07;;;;;;;10.38;2.70;;;4.60;99.90;;;;;;5000735;28;20423;-85
2022/03/01 04:04:35;;;;;;;6.78;2.78;;;4.60;99.90;;;;;;5000865;28;20487;-84
2022/03/01 04:07:02;;;;;;;7.60;2.63;;;4.60;99.90;;;;;;5000570;28;20498;-84
2022/03/01 04:09:29;;;;;;;8.88;3.05;;;4.70;99.90;;;;;;5000424;28;20056;-84
2022/03/01 04:11:56;;;;;;;8.80;2.65;;;4.70;99.90;;;;;;5000581;28;20025;-84
2022/03/01 04:14:23;;;;;;;9.75;2.58;;;4.80;99.90;;;;;;5000597;28;20029;-84
2022/03/01 04:16:49;;;;;;;7.68;3.17;;;4.80;99.90;;;;;;5000769;28;20030;-84
2022/03/01 04:19:17;;;;;;;9.80;3.00;;;4.80;99.90;;;;;;5000726;28;20034;-85
2022/03/01 04:21:44;;;;;;;10.20;3.13;;;4.80;99.90;;;;;;5016970;28;20029;-84
2022/03/01 04:24:17;;;;;;;6.80;3.08;;;4.80;99.90;;;;;;5016899;28;20029;-83
2022/03/01 04:26:47;;;;;;;8.43;3.05;;;4.80;99.90;;;;;;5000326;28;20120;-83
2022/03/01 04:29:14;;;;;;;8.65;3.05;;;4.80;99.90;;;;;;5000295;28;20033;-84
2022/03/01 04:31:41;;;;;;;7.95;3.10;;;4.80;99.90;;;;;;5016577;28;20026;-84
2022/03/01 04:34:08;;;;;;;5.70;2.85;;;4.80;99.90;;;;;;4999765;28;20025;-83
2022/03/01 04:36:39;;;;;;;5.45;2.42;;;4.70;99.90;;;;;;5016488;28;20033;-84
2022/03/01 04:39:05;;;;;;;10.95;3.05;;;4.70;99.90;;;;;;5016616;28;20072;-83
2022/03/01 04:41:32;;;;;;;7.70;2.88;;;4.70;99.90;;;;;;5016513;28;20060;-83
2022/03/01 04:43:59;;;;;;;7.05;2.97;;;4.70;99.90;;;;;;5016840;28;20097;-83
2022/03/01 04:46:25;;;;;;;7.45;2.85;;;4.70;99.90;;;;;;5000155;28;20033;-83
2022/03/01 04:48:52;;;;;;;5.72;2.60;;;4.70;99.90;;;;;;5016866;28;20033;-84
2022/03/01 04:51:21;;;;;;;8.32;3.88;;;4.70;99.90;;;;;;5000259;28;20029;-83
2022/03/01 04:53:54;;;;;;;8.10;3.33;;;4.80;99.90;;;;;;4999932;28;20028;-84
2022/03/01 04:56:20;;;;;;;7.25;2.47;;;4.80;99.90;;;;;;5016597;28;20033;-83
2022/03/01 04:58:47;;;;;;;8.15;2.47;;;4.80;99.90;;;;;;5000271;28;20036;-83
2022/03/01 05:01:14;;;;;;;7.15;2.90;;;4.80;99.90;;;;;;4999822;28;20041;-84
2022/03/01 05:03:43;;;;;;;12.60;3.67;;;4.80;99.90;;;;;;5000085;28;20025;-84
2022/03/01 05:06:10;;;;;;;4.70;2.65;;;4.80;99.90;;;;;;5016302;28;20049;-84
2022/03/01 05:08:37;;;;;;;7.88;2.80;;;4.80;99.90;;;;;;4999649;28;20402;-84
2022/03/01 05:11:03;;;;;;;6.95;2.72;;;4.80;99.90;;;;;;5016289;28;20490;-84
2022/03/01 05:13:30;;;;;;;4.85;2.67;;;4.90;99.90;;;;;;5016208;28;20040;-83
2022/03/01 05:15:57;;;;;;;5.75;1.90;;;4.80;99.90;;;;;;5000099;28;20022;-84
2022/03/01 05:18:23;;;;;;;7.88;2.72;;;4.80;99.90;;;;;;5016276;28;20037;-83
2022/03/01 05:20:51;;;;;;;8.82;2.40;;;4.70;99.90;;;;;;4999803;28;20438;-83
2022/03/01 05:23:21;;;;;;;5.22;2.20;;;4.80;99.90;;;;;;4999772;28;20113;-83
2022/03/01 05:25:48;;;;;;;3.70;1.90;;;4.80;99.90;;;;;;4999911;28;20034;-83
2022/03/01 05:28:15;;;;;;;6.22;2.10;;;4.80;99.90;;;;;;4999546;28;20042;-83
2022/03/01 05:30:42;;;;;;;10.55;2.95;;;4.90;99.90;;;;;;4999643;28;20529;-83
2022/03/01 05:33:08;;;;;;;4.90;2.25;;;4.90;99.90;;;;;;4999855;28;20049;-83
2022/03/01 05:35:35;;;;;;;8.98;2.67;;;4.90;99.90;;;;;;4999894;28;20517;-83
2022/03/01 05:38:07;;;;;;;5.75;1.77;;;4.90;99.90;;;;;;4999568;28;20029;-84
2022/03/01 05:40:34;;;;;;;6.70;2.13;;;4.80;99.90;;;;;;4999608;28;20034;-83
2022/03/01 05:43:01;;;;;;;4.38;1.52;;;4.90;99.90;;;;;;5015907;28;20029;-83
2022/03/01 05:45:28;;;;;;;5.75;2.20;;;4.90;99.90;;;;;;4999644;28;20049;-83
2022/03/01 05:47:56;;;;;;;5.15;2.22;;;4.90;99.90;;;;;;5002338;28;20120;-83
2022/03/01 05:50:26;;;;;;;4.88;2.05;;;4.90;99.90;;;;;;5002949;28;20018;-83
2022/03/01 05:52:53;;;;;;;2.78;1.98;;;4.80;99.90;;;;;;5019414;28;20057;-84
2022/03/01 05:55:20;;;;;;;3.10;1.90;;;4.90;99.90;;;;;;5003080;28;20029;-83
2022/03/01 05:57:47;;;;;;;4.88;2.17;;;4.90;99.90;;;;;;5003025;28;20159;-83
2022/03/01 06:00:17;;;;;;;3.10;1.50;;;4.80;99.90;;;;;;5019080;28;20034;-83
2022/03/01 06:02:47;;;;;;;3.67;1.70;;;4.90;99.90;;;;;;5003012;28;20541;-84
2022/03/01 06:05:17;;;;;;;5.82;2.08;;;4.90;99.90;;;;;;5002832;28;20037;-83
2022/03/01 06:07:45;;;;;;;5.47;2.20;;;4.90;99.90;;;;;;5002834;28;20048;-83
2022/03/01 06:10:14;;;;;;;5.88;1.88;;;5.00;99.90;;;;;;5002468;28;20056;-83
2022/03/01 06:12:43;;;;;;;3.90;1.80;;;4.90;99.90;;;;;;5002687;28;20033;-83
2022/03/01 06:15:10;;;;;;;7.63;2.10;;;4.90;99.90;;;;;;5002667;28;20458;-83
2022/03/01 06:17:37;;;;;;;6.82;2.25;;;4.90;99.90;;;;;;5018847;28;20029;-83
2022/03/01 06:20:05;;;;;;;4.07;2.00;;;5.00;99.90;;;;;;5002522;28;20036;-83
2022/03/01 06:22:31;;;;;;;5.55;2.00;;;5.00;99.90;;;;;;5002190;28;20029;-84
2022/03/01 06:24:59;;;;;;;6.88;1.88;;;5.00;99.90;;;;;;5002471;28;20422;-84
2022/03/01 06:27:26;;;;;;;7.32;1.63;;;5.20;99.90;;;;;;5002304;28;20037;-83
2022/03/01 06:29:53;;;;;;;7.45;2.30;;;5.10;99.90;;;;;;5018800;28;20116;-84
2022/03/01 06:32:20;;;;;;;2.50;1.52;;;5.20;99.90;;;;;;5002396;28;20056;-83
2022/03/01 06:34:50;;;;;;;2.75;1.77;;;5.20;99.90;;;;;;5018905;28;20060;-83
2022/03/01 06:37:19;;;;;;;2.72;1.55;;;5.20;99.90;;;;;;5002250;28;20032;-84
2022/03/01 06:39:50;;;;;;;4.10;2.10;;;5.40;99.90;;;;;;5002361;28;20036;-83
2022/03/01 06:42:18;;;;;;;4.47;2.55;;;5.40;99.90;;;;;;5018709;28;20506;-84
2022/03/01 06:44:45;;;;;;;6.55;2.60;;;5.50;99.90;;;;;;5002281;28;20052;-83
2022/03/01 06:47:15;;;;;;;4.53;2.00;;;5.70;99.90;;;;;;5002054;28;20029;-83
2022/03/01 06:49:41;;;;;;;5.15;1.63;;;5.90;99.90;;;;;;5001839;28;20061;-84
2022/03/01 06:52:08;;;;;;;3.25;2.05;;;6.10;99.90;;;;;;5002085;28;20075;-83
2022/03/01 06:54:34;;;;;;;3.40;1.67;;;6.20;99.90;;;;;;5002052;28;20022;-83
2022/03/01 06:57:01;;;;;;;4.00;1.10;;;6.30;99.90;;;;;;5017901;28;20044;-83
2022/03/01 06:59:31;;;;;;;2.80;1.00;;;6.50;99.90;;;;;;5001836;28;20033;-83
2022/03/01 07:02:01;;;;;;;1.35;1.25;;;6.60;99.90;;;;;;5001818;28;20175;-83
2022/03/01 07:04:28;;;;;;;4.90;1.13;;;6.60;99.90;;;;;;5001712;28;20033;-83
2022/03/01 07:06:55;;;;;;;1.70;1.10;;;6.50;99.90;;;;;;5017824;28;20033;-83
2022/03/01 07:09:21;;;;;;;3.90;1.60;;;6.30;99.90;;;;;;5017872;28;20045;-84
2022/03/01 07:11:48;;;;;;;3.75;1.13;;;6.10;99.90;;;;;;5001555;28;20113;-83
2022/03/01 07:14:15;;;;;;;2.25;1.27;;;6.10;99.90;;;;;;5001692;28;20033;-83
2022/03/01 07:16:41;;;;;;;1.30;1.20;;;6.00;99.90;;;;;;5001883;28;20463;-83
2022/03/01 07:19:14;;;;;;;2.63;1.25;;;6.10;99.90;;;;;;5001498;28;20030;-84
2022/03/01 07:21:41;;;;;;;2.70;1.17;;;6.20;99.90;;;;;;5001561;28;20034;-83
2022/03/01 07:24:11;;;;;;;0.95;0.77;;;6.40;99.90;;;;;;5001318;28;20025;-83
2022/03/01 07:26:41;;;;;;;0.73;0.73;;;6.60;99.90;;;;;;5001330;28;20033;-83
2022/03/01 07:29:08;;;;;;;0.88;0.88;;;6.60;99.90;;;;;;5017556;28;20037;-84
2022/03/01 07:31:38;;;;;;;3.50;1.35;;;6.60;99.90;;;;;;5001229;28;20437;-84
2022/03/01 07:34:09;;;;;;;1.40;1.02;;;6.60;99.90;;;;;;5001504;28;20034;-93
2022/03/01 07:36:36;;;;;;;4.15;0.80;;;6.80;99.90;;;;;;5017884;28;20079;-87
2022/03/01 07:39:04;;;;;;;2.40;0.98;;;6.90;99.90;;;;;;5017626;28;20026;-86
2022/03/01 07:41:30;;;;;;;3.92;1.30;;;7.00;99.90;;;;;;5001282;28;20033;-87
2022/03/01 07:43:56;;;;;;;2.13;0.77;;;7.00;99.90;;;;;;5017511;28;20490;-85
2022/03/01 07:46:23;;;;;;;4.43;0.90;;;7.00;99.90;;;;;;5017659;28;20041;-86
2022/03/01 07:48:50;;;;;;;2.05;1.35;;;7.10;99.90;;;;;;5018407;28;20037;-86
2022/03/01 07:51:25;;;;;;;1.15;0.90;;;7.30;99.90;;;;;;5018671;28;20030;-85
2022/03/01 07:53:53;;;;;;;1.42;0.82;;;7.30;99.90;;;;;;5020010;28;20029;-88
2022/03/01 07:56:26;;;;;;;1.73;0.82;;;7.20;99.90;;;;;;5002301;28;20024;-85
2022/03/01 07:58:53;;;;;;;0.98;0.60;;;7.00;99.90;;;;;;5003706;28;20087;-86
2022/03/01 08:01:22;;;;;;;1.15;0.80;;;6.90;99.90;;;;;;5003143;28;20112;-86
2022/03/01 08:03:50;;;;;;;2.17;1.05;;;7.00;99.90;;;;;;5017747;28;20036;-85
2022/03/01 08:06:20;;;;;;;1.10;1.00;;;7.00;99.90;;;;;;5001990;28;20034;-86
2022/03/01 08:08:46;;;;;;;1.40;0.90;;;7.20;99.90;;;;;;5001172;28;20077;-84
2022/03/01 08:11:13;;;;;;;1.67;0.88;;;7.50;99.90;;;;;;5021304;28;20029;-86
2022/03/01 08:13:40;;;;;;;1.63;1.20;;;7.40;99.90;;;;;;5003387;28;20056;-85
2022/03/01 08:16:07;;;;;;;2.20;1.23;;;7.60;99.90;;;;;;5003001;28;20059;-86
2022/03/01 08:18:34;;;;;;;3.08;0.90;;;7.60;99.90;;;;;;5003883;28;20040;-85
2022/03/01 08:21:01;;;;;;;3.13;1.27;;;7.60;99.90;;;;;;5003362;28;20032;-87
2022/03/01 08:23:28;;;;;;;5.32;1.92;;;7.80;99.90;;;;;;5019174;28;20082;-87
2022/03/01 08:25:54;;;;;;;3.75;1.77;;;8.20;99.90;;;;;;5002318;28;20463;-85
2022/03/01 08:28:21;;;;;;;3.13;1.90;;;8.30;99.90;;;;;;5019135;28;20140;-86
2022/03/01 08:30:54;;;;;;;3.45;1.38;;;8.30;99.90;;;;;;5004413;28;20053;-85
2022/03/01 08:33:21;;;;;;;3.38;1.20;;;8.30;99.90;;;;;;5002120;28;20040;-87
2022/03/01 08:35:49;;;;;;;2.80;0.90;;;8.10;99.90;;;;;;5001215;28;20029;-85
2022/03/01 08:38:16;;;;;;;2.65;1.25;;;7.90;99.90;;;;;;5002276;28;20045;-85
2022/03/01 08:40:43;;;;;;;5.03;0.85;;;8.20;99.90;;;;;;5001237;28;20040;-86
2022/03/01 08:43:14;;;;;;;0.98;0.90;;;8.30;99.90;;;;;;5015950;28;20033;-83
2022/03/01 08:45:41;;;;;;;1.60;0.95;;;8.50;99.90;;;;;;5001747;28;20398;-85
2022/03/01 08:48:08;;;;;;;1.23;1.13;;;8.60;99.90;;;;;;5002058;28;20490;-84
2022/03/01 08:50:37;;;;;;;1.38;1.10;;;8.50;99.90;;;;;;5003165;28;20029;-84
2022/03/01 08:53:04;;;;;;;2.15;1.30;;;8.50;99.90;;;;;;5000227;28;20104;-81
2022/03/01 08:55:31;;;;;;;2.15;1.05;;;8.30;99.90;;;;;;5015834;28;20438;-81
2022/03/01 08:57:59;;;;;;;2.85;1.48;;;8.30;99.90;;;;;;5000286;28;20049;-81
2022/03/01 09:00:27;;;;;;;1.60;1.13;;;8.20;99.90;;;;;;4999438;28;20022;-83
2022/03/01 09:02:54;;;;;;;0.82;0.77;;;8.10;99.90;;;;;;5015793;28;20036;-80
2022/03/01 09:05:20;;;;;;;2.17;1.30;;;8.10;99.90;;;;;;5015565;28;20033;-80
2022/03/01 09:07:47;;;;;;;2.05;1.52;;;8.10;99.90;;;;;;4999150;28;20036;-82
2022/03/01 09:10:13;;;;;;;3.78;1.40;;;8.20;99.90;;;;;;4998699;28;20102;-82
2022/03/01 09:12:39;;;;;;;2.13;1.20;;;8.10;99.90;;;;;;4998818;28;20025;-81
2022/03/01 09:15:07;;;;;;;1.65;1.00;;;8.20;99.90;;;;;;4999475;28;20025;-81
2022/03/01 09:17:33;;;;;;;2.00;1.02;;;8.30;99.90;;;;;;5016878;28;20030;-81
2022/03/01 09:20:00;;;;;;;1.65;1.10;;;8.20;99.90;;;;;;5034262;28;20097;-83
2022/03/01 09:22:26;;;;;;;1.75;0.90;;;8.30;99.90;;;;;;5003358;28;20029;-82
2022/03/01 09:24:53;;;;;;;0.60;0.60;;;8.50;99.90;;;;;;5019954;28;20033;-82
2022/03/01 09:27:19;;;;;;;1.38;0.60;;;8.50;99.90;;;;;;5004684;28;20035;-87
2022/03/01 09:29:46;;;;;;;2.78;0.80;;;8.70;99.90;;;;;;5005768;28;20064;-88
2022/03/01 09:32:14;;;;;;;3.35;1.25;;;8.70;99.90;;;;;;5006113;28;20021;-88
2022/03/01 09:34:41;;;;;;;2.17;0.82;;;8.80;99.90;;;;;;5005423;28;20112;-88
2022/03/01 09:37:07;;;;;;;0.93;0.82;;;8.80;99.90;;;;;;5005807;28;20033;-88
2022/03/01 09:39:33;;;;;;;1.25;0.70;;;8.70;99.90;;;;;;5004882;28;20483;-88
2022/03/01 09:42:03;;;;;;;7.60;2.35;;;8.90;99.90;;;;;;5021624;28;20052;-87
2022/03/01 09:44:32;;;;;;;1.75;0.95;;;8.90;99.90;;;;;;5006325;28;20101;-87
2022/03/01 09:47:04;;;;;;;1.90;1.00;;;8.80;99.90;;;;;;5006527;28;20022;-90
2022/03/01 09:49:34;;;;;;;1.52;0.88;;;8.70;99.90;;;;;;5004378;28;20395;-86
2022/03/01 09:52:00;;;;;;;1.85;0.90;;;8.90;99.90;;;;;;5004350;28;20047;-86
2022/03/01 09:54:28;;;;;;;1.73;1.00;;;8.70;99.90;;;;;;5022122;28;20033;-88
2022/03/01 09:56:55;;;;;;;2.70;1.23;;;8.60;99.90;;;;;;5010336;28;20022;-86
2022/03/01 09:59:25;;;;;;;6.63;1.02;;;8.60;99.90;;;;;;5009214;28;20036;-87
2022/03/01 10:01:54;;;;;;;1.55;1.02;;;8.60;99.90;;;;;;5023056;28;20053;-84
2022/03/01 10:04:21;;;;;;;3.40;1.27;;;8.60;99.90;;;;;;5004226;28;20043;-87
2022/03/01 10:06:49;;;;;;;4.78;1.77;;;8.60;99.90;;;;;;5006490;28;20132;-86
2022/03/01 10:09:22;;;;;;;4.43;2.33;;;8.60;99.90;;;;;;5006476;28;20100;-87
2022/03/01 10:11:51;;;;;;;4.87;1.93;;;8.80;99.90;;;;;;5006016;28;20029;-86
2022/03/01 10:14:34;;;;;;;4.63;2.40;;;8.80;99.90;;;;;;5004738;28;20078;-87
2022/03/01 10:17:16;;;;;;;6.07;1.92;;;9.10;99.90;;;;;;5022686;28;20030;-88
2022/03/01 10:19:42;;;;;;;2.20;1.63;;;8.90;99.90;;;;;;5007833;28;20033;-89
2022/03/01 10:22:21;;;;;;;2.53;1.58;;;8.80;99.90;;;;;;5004737;28;20022;-88
2022/03/01 10:24:48;;;;;;;3.80;2.10;;;8.80;99.90;;;;;;5021615;28;20467;-89
2022/03/01 10:27:27;;;;;;;3.83;2.28;;;8.80;99.90;;;;;;5005556;28;20029;-86
2022/03/01 10:29:53;;;;;;;4.82;1.70;;;8.80;99.90;;;;;;5018392;28;20410;-87
2022/03/01 10:32:20;;;;;;;4.93;2.10;;;8.80;99.90;;;;;;5001215;28;20026;-83
2022/03/01 10:35:08;;;;;;;3.92;1.65;;;9.10;99.90;;;;;;5017966;28;20037;-85
2022/03/01 10:37:40;;;;;;;2.67;1.73;;;9.30;99.90;;;;;;5004099;28;20091;-87
2022/03/01 10:40:12;;;;;;;5.45;2.63;;;9.30;99.90;;;;;;5003990;28;20033;-86
2022/03/01 10:42:39;;;;;;;5.25;2.85;;;9.40;99.90;;;;;;5003859;28;20024;-88
2022/03/01 10:45:09;;;;;;;5.35;2.38;;;9.80;99.90;;;;;;5019257;28;20367;-87
2022/03/01 10:47:40;;;;;;;3.45;1.50;;;10.00;99.90;;;;;;5003140;28;20037;-84
2022/03/01 10:50:11;;;;;;;6.07;1.75;;;9.70;99.90;;;;;;5017998;28;20033;-85
2022/03/01 10:52:39;;;;;;;2.28;1.70;;;9.50;99.90;;;;;;5002630;28;20104;-85
2022/03/01 10:55:22;;;;;;;5.55;2.22;;;9.20;99.90;;;;;;5002543;28;20036;-84
2022/03/01 10:58:10;;;;;;;6.28;2.80;;;9.10;99.90;;;;;;5001429;28;20029;-85
2022/03/01 11:00:38;;;;;;;6.68;2.45;;;9.10;99.90;;;;;;5017653;28;20478;-86
2022/03/01 11:03:06;;;;;;;2.83;1.60;;;9.00;99.90;;;;;;5001597;28;20060;-84
2022/03/01 11:05:34;;;;;;;2.92;1.67;;;9.10;99.90;;;;;;5017311;28;20107;-83
2022/03/01 11:08:09;;;;;;;3.83;2.30;;;9.10;99.90;;;;;;5001083;28;20034;-84
2022/03/01 11:10:38;;;;;;;2.58;1.55;;;9.00;99.90;;;;;;5001179;28;20064;-84
2022/03/01 11:13:06;;;;;;;3.20;2.00;;;9.00;99.90;;;;;;5000718;28;20108;-83
2022/03/01 11:15:51;;;;;;;5.47;2.22;;;9.20;99.90;;;;;;5000974;28;20029;-85
2022/03/01 11:18:55;;;;;;;5.18;2.05;;;9.20;99.90;;;;;;5000861;28;20038;-82
2022/03/01 11:21:23;;;;;;;2.08;1.23;;;9.30;99.90;;;;;;5000891;28;20034;-85
2022/03/01 11:23:54;;;;;;;1.77;1.20;;;9.40;99.90;;;;;;5000743;28;20021;-82
2022/03/01 11:26:20;;;;;;;2.22;1.38;;;9.50;99.90;;;;;;5000613;28;20513;-81
2022/03/01 11:28:55;;;;;;;4.15;1.35;;;9.60;99.90;;;;;;5000613;28;20376;-85
2022/03/01 11:31:23;;;;;;;2.22;0.88;;;9.90;99.90;;;;;;5001068;28;20022;-85
2022/03/01 11:34:01;;;;;;;1.95;1.33;;;9.60;99.90;;;;;;5001179;28;20029;-87
2022/03/01 11:36:31;;;;;;;3.13;1.05;;;9.40;99.90;;;;;;5001413;28;20502;-86
2022/03/01 11:43:33;;;;;;;1.52;1.35;;;9.40;99.90;;;;;;5388523;22;20064;-91
2022/03/01 11:48:57;;;;;;;4.28;2.45;;;9.50;99.90;;;;;;4998453;23;20419;-94
2022/03/01 11:52:01;;;;;;;3.83;2.15;;;9.70;99.90;;;;;;5008197;23;20041;-91
2022/03/01 12:01:40;;;;;;;11.45;3.47;;;9.50;99.90;;;;;;5008230;23;20145;-92
2022/03/01 12:04:13;;;;;;;5.40;1.92;;;9.40;99.90;;;;;;4978495;28;20030;-93
2022/03/01 12:06:56;;;;;;;3.38;2.00;;;9.30;99.90;;;;;;4978534;28;20038;-92
2022/03/01 12:10:28;;;;;;;5.05;2.60;;;9.20;99.90;;;;;;5026164;23;20069;-92
2022/03/01 12:48:09;;;;;;;5.72;1.75;;;9.00;99.90;;;;;;5013645;28;20046;-92
2022/03/01 12:53:25;;;;;;;3.72;2.33;;;8.70;99.90;;;;;;4979274;28;20129;-92
2022/03/01 12:55:53;;;;;;;7.85;2.03;;;8.80;99.90;;;;;;4953173;28;20027;-91
2022/03/01 12:58:23;;;;;;;4.22;1.27;;;8.80;99.90;;;;;;4968891;28;20057;-92
2022/03/01 13:00:51;;;;;;;3.22;1.50;;;8.80;99.90;;;;;;4979910;28;20035;-90
2022/03/01 13:03:32;;;;;;;5.38;1.75;;;8.80;99.90;;;;;;4987101;28;20023;-92
2022/03/01 13:06:31;;;;;;;4.40;1.85;;;8.90;99.90;;;;;;4982670;28;20039;-92
2022/03/01 13:09:31;;;;;;;3.55;1.80;;;8.90;99.90;;;;;;4983417;28;20445;-92
2022/03/01 13:12:12;;;;;;;;;;;8.90;99.90;;;;;;4966270;28;20035;-92
2022/03/01 13:18:34;;;;;;;5.90;2.67;;;9.10;99.90;;;;;;5185164;22;20057;-92
2022/03/01 13:21:00;;;;;;;4.63;1.80;;;9.20;99.90;;;;;;5010320;28;20542;-90
2022/03/01 13:23:30;;;;;;;6.35;1.88;;;9.20;99.90;;;;;;5000819;28;20510;-90
2022/03/01 13:25:59;;;;;;;3.95;1.73;;;9.30;99.90;;;;;;5002386;28;20030;-91
2022/03/01 13:28:39;;;;;;;5.18;2.67;;;9.40;99.90;;;;;;5002048;28;20037;-90
2022/03/01 13:31:06;;;;;;;8.48;2.92;;;9.30;99.90;;;;;;5002220;28;20029;-90
2022/03/01 13:33:34;;;;;;;7.50;2.80;;;9.30;99.90;;;;;;5003102;28;20479;-91
2022/03/01 13:36:12;;;;;;;2.70;1.48;;;9.30;99.90;;;;;;5002673;28;20475;-92
2022/03/01 13:38:40;;;;;;;5.07;1.63;;;9.20;99.90;;;;;;5002319;28;20079;-91
2022/03/01 13:41:07;;;;;;;4.00;1.30;;;9.00;99.90;;;;;;5006767;28;20082;-92
2022/03/01 13:43:34;;;;;;;3.35;2.03;;;9.00;99.90;;;;;;5002839;28;20490;-92
2022/03/01 13:46:07;;;;;;;3.72;2.03;;;9.00;99.90;;;;;;4986713;28;20025;-90
2022/03/01 13:48:34;;;;;;;2.57;1.50;;;8.90;99.90;;;;;;5002283;28;20053;-92
2022/03/01 13:51:04;;;;;;;4.78;2.25;;;8.90;99.90;;;;;;5002300;28;20022;-92
2022/03/01 13:53:31;;;;;;;11.10;3.72;;;8.80;99.90;;;;;;5001470;28;20030;-90
2022/03/01 13:55:59;;;;;;;11.38;3.28;;;8.90;99.90;;;;;;5001590;28;20034;-91
2022/03/01 13:58:27;;;;;;;4.55;2.78;;;8.80;99.90;;;;;;4985418;28;20021;-91
2022/03/01 14:00:56;;;;;;;9.32;4.30;;;8.90;99.90;;;;;;5001331;28;20030;-91
2022/03/01 14:03:32;;;;;;;7.45;3.42;;;8.80;99.90;;;;;;4985196;28;20072;-91